Weimar, CA

6:18 PM PST on February 27, 2017 (GMT -0800)
This Is It Lane, Weimar, CA | | Change Station
Active Advisory: Hydrologic Statement

Elev 2222 ft 39.04 °N, 120.99 °W | Updated 6 seconds ago

Clear
Clear
40.8 °F
Feels Like 41 °F
N
0.0
Wind Variable Wind from ESE
Gusts 0.0 mph

Today
High -- | Low -- °F
--% Chance of Precip.
Yesterday
High -- | Low -- °F
Precip. -- in
Pressure 29.92 in
Visibility 10.0 miles
Clouds Clear
Windchill 41 °F
Dew Point 34 °F
Humidity 76%
Rainfall 0.02 in
Snow Depth Not available.
6:38 AM 5:54 PM
Waxing Crescent, 3% visible
METAR KAUN 280155Z AUTO 29004KT 10SM CLR 08/00 A2992 RMK AO1
Pressure 29.92 in
Visibility 10.0 miles
Clouds Clear
Windchill 41 °F
Dew Point 34 °F
Humidity 76%
Rainfall 0.02 in
Snow Depth Not available.
6:38 AM 5:54 PM
Waxing Crescent, 3% visible
METAR KAUN 280155Z AUTO 29004KT 10SM CLR 08/00 A2992 RMK AO1

Get Your Daily Forecast Email!

Thanks for signing up!

Be on the lookout for a verification email in your inbox.

You'll start receiving the daily forecast at 8 AM.

×

10-Day Weather Forecast

Almanac

Astronomy

Feb. 27, 2017 Rise Set
Actual Time
Civil Twilight
Nautical Twilight
Astronomical Twilight
Moon
Length of Visible Light
Length of Day
Tomorrow will be .
, % of the Moon is Illuminated

Today's Extremes

State Highs State Lows

Community

WunderPhotos

Upload Photos

1,962,540 photos uploaded!

WunderBlog® & News

Nearby

Air Quality

  Air Quality AQ Index Pollutant
Not available.

Snow Depth

Station Depth Elevation

Earthquake Activity

City Distance Mag. Time & Date
Minimum magnitude displayed is 2.5.

Coastal Water Temperatures

Place Temperature

Stations

Nearby Weather Stations

Station Location Temp. Windchill Dew Point Humidity Wind Precip. Elev Updated Type
                   

Watches & Warnings

Hydrologic Statement
Issued: 4:50 PM PST Feb. 27, 2017 – National Weather Service

Forecast information for
feather river near Nicolaus.
* At 4:15 PM Monday the stage was 40.6 feet.
* Forecast to fluctuate near 41.0 ft thru near this midnight then
forecast to fall below monitor stage of 39.0 ft late tomorrow
morning then forecast to recede to near 37.0 ft tomorrow afternoon.
* Flood stage 47.0 ft
* monitor stage 39.0 ft


&&

Lat... Lon 3897 12165 3903 12149 3884 12150 3876 12168